Huvudsida
METAR-TAF:

METAR-TAF

Flygplatser :

Deering, Alaska, USA

latitud: 66-05N, longitud: 162-45W, höjd: 5 m

Aktuellt väderrapport

Denna rapport gjordes för 37 minuter sedan, klockan 17:53 UTC
Vind 8 kt från väst
Temperatur 7°C
Fuktighet 76%
Tryck 1024 hPa
Sikt: 16.1 km
Mulet på en höjd av 2500 ft

METAR: PADE 141753Z AUTO 28008KT 10SM OVC025 07/03 A3025 RMK AO2 SLP242 T00670033 10072 20033 53009 TSNO

Tid: 10:30 (18:30 UTC)


TAF: saknas

Aktuella väderrapporter och prognoser från 4000 flygplatser (METAR- och TAF-rapporter).

De tillgängliga stationerna syns som gula och röda prickar på kartan.

För musen över prickarna för att se namnen på stationerna.

Klicka sedan för att få väderrapporter och prognoser.

För att ändra kartan: Klicka på de gröna knapparna med ett svart kors på för att zooma in; den gröna knappen med ett streck på för att zooma ut; eller på de gröna pilarna för angränsande kartor.


METAR-TAF: